createdAt,value
2023-02-19T00:04:10.220Z,75.5
2023-02-19T00:14:10.164Z,75.5
2023-02-19T00:24:10.230Z,75.5
2023-02-19T00:34:10.161Z,75.5
2023-02-19T00:44:10.299Z,76
2023-02-19T00:54:10.317Z,76
2023-02-19T01:04:00.142Z,76
2023-02-19T01:14:00.244Z,76
2023-02-19T01:24:00.323Z,76
2023-02-19T01:34:00.271Z,76
2023-02-19T01:44:00.384Z,76
2023-02-19T01:54:00.280Z,76
2023-02-19T02:04:00.361Z,76
2023-02-19T02:14:00.338Z,76
2023-02-19T02:24:00.388Z,76
2023-02-19T02:34:00.300Z,76
2023-02-19T02:44:00.366Z,76
2023-02-19T02:54:00.270Z,76
2023-02-19T03:04:00.375Z,76
2023-02-19T03:14:00.469Z,76
2023-02-19T03:24:00.360Z,76
2023-02-19T03:34:00.441Z,76
2023-02-19T03:44:00.356Z,75.5
2023-02-19T03:54:00.484Z,75.5
2023-02-19T04:04:00.346Z,75.5
2023-02-19T04:14:00.457Z,75.5
2023-02-19T04:24:00.325Z,75.5
2023-02-19T04:34:00.426Z,75
2023-02-19T04:44:00.537Z,75
2023-02-19T04:54:00.466Z,75
2023-02-19T05:04:00.656Z,75
2023-02-19T05:14:00.475Z,75
2023-02-19T05:24:00.538Z,75
2023-02-19T05:34:00.426Z,75
2023-02-19T05:44:00.557Z,75
2023-02-19T05:54:00.442Z,75
2023-02-19T06:04:00.543Z,75
2023-02-19T06:14:00.601Z,63
2023-02-19T06:24:00.542Z,62.5
2023-02-19T06:34:00.626Z,65.5
2023-02-19T06:44:00.531Z,67
2023-02-19T06:54:00.629Z,69
2023-02-19T07:04:00.620Z,70
2023-02-19T07:14:00.656Z,71
2023-02-19T07:24:00.546Z,72
2023-02-19T07:34:00.652Z,72
2023-02-19T07:44:00.525Z,72.5
2023-02-19T07:54:00.656Z,72.5
2023-02-19T08:04:00.575Z,73
2023-02-19T08:14:00.673Z,59.5
2023-02-19T08:24:00.782Z,61.5
2023-02-19T08:34:00.666Z,64
2023-02-19T08:44:00.759Z,66
2023-02-19T08:54:00.653Z,67.5
2023-02-19T09:04:00.796Z,68.5
2023-02-19T09:14:00.629Z,69.5
2023-02-19T09:24:00.731Z,70
2023-02-19T09:34:00.652Z,70.5
2023-02-19T09:44:00.769Z,71
2023-02-19T09:54:00.895Z,71.5
2023-02-19T10:04:00.774Z,71.5
2023-02-19T10:14:00.823Z,72
2023-02-19T10:24:00.828Z,72
2023-02-19T10:34:00.713Z,72
2023-02-19T10:44:00.801Z,72
2023-02-19T10:54:00.959Z,71.5
2023-02-19T11:04:00.876Z,71
2023-02-19T11:14:00.788Z,70.5
2023-02-19T11:24:00.912Z,69
2023-02-19T11:34:00.813Z,66.5
2023-02-19T11:44:00.922Z,65.5
2023-02-19T11:54:01.014Z,65
2023-02-19T12:04:00.867Z,63
2023-02-19T12:14:00.862Z,63
2023-02-19T12:24:00.954Z,62
2023-02-19T12:34:01.051Z,61
2023-02-19T12:44:00.895Z,60.5
2023-02-19T12:54:00.986Z,61.5
2023-02-19T13:04:00.939Z,62
2023-02-19T13:14:01.060Z,63
2023-02-19T13:24:00.922Z,62.5
2023-02-19T13:34:01.052Z,63
2023-02-19T13:44:00.906Z,63
2023-02-19T13:54:01.043Z,62.5
2023-02-19T14:04:01.099Z,61
2023-02-19T14:14:01.040Z,60.5
2023-02-19T14:24:01.119Z,60.5
2023-02-19T14:34:01.030Z,60.5
2023-02-19T14:44:01.132Z,61
2023-02-19T14:54:01.016Z,60
2023-02-19T15:04:01.121Z,60
2023-02-19T15:14:00.988Z,61
2023-02-19T15:24:01.103Z,63
2023-02-19T15:34:01.029Z,63
2023-02-19T15:44:01.128Z,63
2023-02-19T15:54:01.009Z,58.5
2023-02-19T16:04:01.108Z,61
2023-02-19T16:14:01.206Z,62.5
2023-02-19T16:24:01.168Z,63.5
2023-02-19T16:34:01.266Z,64.5
2023-02-19T16:44:01.122Z,65.5
2023-02-19T16:54:01.225Z,65.5
2023-02-19T17:04:01.199Z,65
2023-02-19T17:14:01.250Z,64.5
2023-02-19T17:24:01.127Z,66
2023-02-19T17:34:01.242Z,66.5
2023-02-19T17:44:01.105Z,67.5
2023-02-19T17:54:01.203Z,68
2023-02-19T18:04:01.436Z,68.5
2023-02-19T18:14:01.274Z,68.5
2023-02-19T18:24:01.369Z,68.5
2023-02-19T18:34:02.173Z,69
2023-02-19T18:44:01.347Z,66.5
2023-02-19T18:54:01.233Z,56.5
2023-02-19T19:04:01.428Z,58.5
2023-02-19T19:14:01.228Z,60.5
2023-02-19T19:24:01.334Z,62
2023-02-19T19:34:01.293Z,63.5
2023-02-19T19:44:01.364Z,65
2023-02-19T19:54:01.465Z,65.5
2023-02-19T20:04:01.338Z,66.5
2023-02-19T20:14:01.439Z,67
2023-02-19T20:24:01.372Z,67.5
2023-02-19T20:34:01.466Z,68
2023-02-19T20:44:01.332Z,68
2023-02-19T20:54:01.426Z,68.5
2023-02-19T21:04:01.366Z,68.5
2023-02-19T21:14:01.450Z,69
2023-02-19T21:24:01.580Z,69
2023-02-19T21:34:01.437Z,69.5
2023-02-19T21:44:01.532Z,70
2023-02-19T21:54:01.419Z,70
2023-02-19T22:04:01.491Z,70.5
2023-02-19T22:14:01.422Z,70.5
2023-02-19T22:24:01.543Z,71
2023-02-19T22:34:01.603Z,71
2023-02-19T22:44:01.516Z,71
2023-02-19T22:54:01.626Z,71
2023-02-19T23:04:01.578Z,71.5
2023-02-19T23:14:01.631Z,71.5
2023-02-19T23:24:01.490Z,71.5
2023-02-19T23:34:01.581Z,72.5
2023-02-19T23:44:01.562Z,72.5
2023-02-19T23:54:01.593Z,72.5
